EDMA/AGB METAR and TAF weather

Enter ICAO airport designator
Station Type Date Time Source
EDMA METAR 2024/04/17 18:20 UTC NOAA

EDMA 171820Z 23007KT 9999 FEW022 04/02 Q1009


Station Type Date Time Source
EDMA Decoded METAR 2024/04/17 18:20 UTC NOAA

Augsburg, Germany (EDMA) 48-26N 010-56E 463M
Apr 17, 2024 - 02:20 PM EDT / 2024.04.17 1820 UTC
Wind: from the SW (230 degrees) at 8 MPH (7 KT):0
Visibility: greater than 7 mile(s):0
Sky conditions: mostly clear
Temperature: 39 F (4 C)
Dew Point: 35 F (2 C)
Relative Humidity: 86%
Pressure (altimeter): 29.80 in. Hg (1009 hPa)
ob: EDMA 171820Z 23007KT 9999 FEW022 04/02 Q1009
cycle: 18

Station Type Date Time Source
EDMA TAF 2010/02/22 13:50 UTC NOAA